Time;durP1;ratioP1;P1;durP2;ratioP2;P2;SDS_P1;SDS_P2;PMS_P1;PMS_P2;Temp;Humidity;BMP_temperature;BMP_pressure;BME280_temperature;BME280_humidity;BME280_pressure;Samples;Min_cycle;Max_cycle;Signal;HPM_P1;HPM_P2
2022/03/31 00:04:00;;;;;;;35.63;12.63;;;8.50;99.90;;;;;;20999352;28;20052;-76
2022/03/31 00:14:00;;;;;;;24.52;9.95;;;8.40;99.90;;;;;;20998629;28;20068;-76
2022/03/31 00:24:01;;;;;;;31.23;11.60;;;8.40;99.90;;;;;;20998011;28;20561;-76
2022/03/31 00:34:02;;;;;;;32.47;11.53;;;8.40;99.90;;;;;;20997599;28;20036;-76
2022/03/31 00:44:03;;;;;;;23.70;9.97;;;8.30;99.90;;;;;;20996401;28;20029;-76
2022/03/31 00:54:04;;;;;;;26.58;11.38;;;8.30;99.90;;;;;;20999828;28;20021;-75
2022/03/31 01:04:08;;;;;;;25.03;10.30;;;8.30;99.90;;;;;;20994483;28;20032;-76
2022/03/31 01:14:09;;;;;;;24.77;10.63;;;8.30;99.90;;;;;;20993459;28;20031;-76
2022/03/31 01:24:13;;;;;;;31.80;10.70;;;8.40;99.90;;;;;;20992783;28;20371;-76
2022/03/31 01:34:14;;;;;;;32.20;11.75;;;8.40;99.90;;;;;;20992669;28;20032;-74
2022/03/31 01:44:15;;;;;;;25.53;12.13;;;8.40;99.90;;;;;;20991740;28;20104;-74
2022/03/31 01:54:17;;;;;;;27.17;12.50;;;8.40;99.90;;;;;;20991249;28;20029;-74
2022/03/31 02:04:17;;;;;;;26.55;11.23;;;8.40;99.90;;;;;;20990788;28;20665;-74
2022/03/31 02:14:19;;;;;;;24.57;10.37;;;8.40;99.90;;;;;;20989164;28;20055;-76
2022/03/31 02:24:21;;;;;;;22.42;8.68;;;8.30;99.90;;;;;;20971849;28;20041;-76
2022/03/31 02:34:21;;;;;;;19.08;8.25;;;8.20;99.90;;;;;;20990758;28;20047;-76
2022/03/31 02:44:23;;;;;;;17.07;8.17;;;8.10;99.90;;;;;;20994867;28;20028;-76
2022/03/31 03:04:42;;;;;;;17.50;6.13;;;7.90;99.90;;;;;;20988586;28;20039;-76
2022/03/31 03:14:44;;;;;;;17.43;5.97;;;7.90;99.90;;;;;;20988107;28;20032;-75
2022/03/31 03:24:44;;;;;;;19.75;7.22;;;7.90;99.90;;;;;;20999584;28;20043;-75
2022/03/31 03:34:46;;;;;;;14.73;6.50;;;8.00;99.90;;;;;;20979238;22;20083;-75
2022/03/31 03:44:46;;;;;;;22.80;10.75;;;8.20;99.90;;;;;;21001410;28;20383;-75
2022/03/31 03:54:47;;;;;;;34.90;11.30;;;8.30;99.90;;;;;;20982669;28;20036;-74
2022/03/31 04:04:48;;;;;;;25.57;10.43;;;8.10;99.90;;;;;;20999823;28;20024;-74
2022/03/31 04:14:49;;;;;;;29.27;11.67;;;8.10;99.90;;;;;;20981027;28;20035;-74
2022/03/31 04:24:50;;;;;;;29.45;13.80;;;8.20;99.90;;;;;;20998441;28;20155;-74
2022/03/31 04:34:51;;;;;;;34.30;13.20;;;8.20;99.90;;;;;;20997133;28;20052;-74
2022/03/31 04:44:52;;;;;;;35.90;12.13;;;8.20;99.90;;;;;;20924264;28;20021;-74
2022/03/31 04:54:53;;;;;;;35.93;12.80;;;7.70;99.90;;;;;;20905817;28;20036;-73
2022/03/31 05:04:54;;;;;;;45.27;11.77;;;7.50;99.90;;;;;;20912771;28;20029;-74
2022/03/31 05:14:56;;;;;;;29.45;9.05;;;7.60;99.90;;;;;;20906030;28;20331;-75
2022/03/31 05:24:57;;;;;;;19.60;6.30;;;7.60;99.90;;;;;;20906571;28;20040;-75
2022/03/31 05:34:57;;;;;;;14.13;5.10;;;7.50;99.90;;;;;;20910121;28;20040;-75
2022/03/31 05:44:59;;;;;;;22.00;5.30;;;7.30;99.90;;;;;;20906440;28;20044;-76
2022/03/31 05:55:00;;;;;;;13.95;5.32;;;7.20;99.90;;;;;;20890680;28;20029;-75
2022/03/31 06:05:01;;;;;;;22.33;4.67;;;7.10;99.90;;;;;;20890307;28;20032;-75
2022/03/31 06:15:06;;;;;;;11.20;4.67;;;7.20;99.90;;;;;;20889922;28;20037;-74
2022/03/31 06:25:10;;;;;;;16.33;4.65;;;7.30;99.90;;;;;;20907249;28;20033;-75
2022/03/31 06:35:14;;;;;;;21.00;4.57;;;7.40;99.90;;;;;;20907111;28;20029;-75
2022/03/31 06:45:16;;;;;;;13.80;3.72;;;7.50;99.90;;;;;;20890053;28;20123;-74
2022/03/31 06:55:17;;;;;;;16.77;4.57;;;8.00;99.90;;;;;;20895827;28;20036;-76
2022/03/31 07:05:18;;;;;;;12.10;4.93;;;8.30;99.90;;;;;;20921796;28;20128;-75
2022/03/31 07:15:19;;;;;;;15.70;6.10;;;8.60;99.90;;;;;;20902860;28;20133;-75
2022/03/31 07:25:20;;;;;;;18.08;6.45;;;8.90;99.90;;;;;;20903797;28;20507;-75
2022/03/31 07:35:22;;;;;;;18.83;5.80;;;9.40;99.90;;;;;;20919553;28;20044;-75
2022/03/31 07:45:24;;;;;;;20.00;6.82;;;9.50;99.90;;;;;;20919962;28;20522;-74
2022/03/31 07:55:25;;;;;;;22.98;6.65;;;9.50;99.90;;;;;;20917803;28;20553;-75
2022/03/31 08:05:27;;;;;;;30.00;10.20;;;9.50;99.90;;;;;;20916051;28;20104;-74
2022/03/31 08:15:28;;;;;;;27.65;8.52;;;9.70;99.90;;;;;;20916319;28;20029;-75
2022/03/31 08:25:29;;;;;;;37.77;13.57;;;9.80;99.90;;;;;;20915895;28;20025;-74
2022/03/31 08:35:30;;;;;;;40.92;14.23;;;9.30;99.90;;;;;;20915435;28;20036;-75
2022/03/31 08:45:35;;;;;;;38.30;14.13;;;9.20;99.90;;;;;;20914722;28;20444;-75
2022/03/31 08:55:36;;;;;;;45.47;16.40;;;9.40;99.90;;;;;;20913410;28;20410;-74
2022/03/31 09:05:49;;;;;;;32.73;15.60;;;9.50;99.90;;;;;;20913059;28;20107;-75
2022/03/31 09:16:08;;;;;;;44.05;15.63;;;9.40;99.90;;;;;;20911171;28;20075;-75
2022/03/31 09:26:14;;;;;;;46.58;14.80;;;9.40;99.90;;;;;;20909236;22;20090;-74
2022/03/31 09:36:17;;;;;;;23.65;10.38;;;9.40;99.90;;;;;;20822219;28;20037;-74
2022/03/31 09:46:20;;;;;;;21.02;8.40;;;9.50;99.90;;;;;;20745301;28;20026;-75
2022/03/31 09:56:24;;;;;;;14.90;6.55;;;9.50;99.90;;;;;;20730585;28;20030;-74
2022/03/31 10:06:26;;;;;;;17.88;6.75;;;9.50;99.90;;;;;;20728751;28;20487;-75
2022/03/31 10:16:44;;;;;;;18.42;7.63;;;10.00;99.90;;;;;;20745940;28;20034;-75
2022/03/31 10:26:56;;;;;;;13.48;4.30;;;11.40;99.90;;;;;;20745299;28;20391;-75
2022/03/31 10:37:05;;;;;;;8.68;3.60;;;11.20;99.90;;;;;;20761307;28;20400;-74
2022/03/31 10:47:09;;;;;;;6.70;2.65;;;12.10;99.90;;;;;;20784209;28;20036;-77
2022/03/31 10:57:17;;;;;;;18.17;2.60;;;12.40;99.90;;;;;;20822007;28;20029;-77
2022/03/31 11:07:20;;;;;;;12.13;3.03;;;12.90;99.90;;;;;;20839410;28;20053;-77
2022/03/31 11:17:22;;;;;;;4.70;1.52;;;12.90;99.90;;;;;;20840287;28;20049;-77
2022/03/31 11:27:39;;;;;;;7.55;1.33;;;12.30;99.90;;;;;;20821829;28;20513;-77
2022/03/31 11:37:52;;;;;;;7.07;1.73;;;13.00;99.90;;;;;;20844323;28;20403;-78
2022/03/31 11:47:58;;;;;;;15.35;2.90;;;13.70;99.90;;;;;;20840522;28;20116;-77
2022/03/31 11:58:00;;;;;;;13.30;1.95;;;13.80;99.90;;;;;;20817270;28;20103;-77
2022/03/31 12:08:41;;;;;;;19.35;2.17;;;13.70;99.90;;;;;;20835182;28;20029;-76
2022/03/31 12:18:43;;;;;;;12.98;2.22;;;12.10;99.90;;;;;;20816134;28;20029;-75
2022/03/31 12:28:46;;;;;;;18.00;3.42;;;11.70;99.90;;;;;;20832861;28;20113;-77
2022/03/31 12:38:50;;;;;;;7.80;2.38;;;11.20;99.90;;;;;;20831657;28;20022;-77
2022/03/31 12:48:57;;;;;;;10.93;2.38;;;10.40;99.90;;;;;;20831100;28;20309;-77
2022/03/31 12:58:57;;;;;;;5.25;1.58;;;9.90;99.90;;;;;;20829416;28;20033;-77
2022/03/31 13:08:58;;;;;;;3.87;1.70;;;9.40;99.90;;;;;;20832563;28;20483;-76
2022/03/31 13:18:59;;;;;;;5.30;2.20;;;9.40;99.90;;;;;;20829193;28;20463;-77
2022/03/31 13:29:05;;;;;;;10.30;2.67;;;9.30;99.90;;;;;;20827905;28;20033;-76
2022/03/31 13:39:12;;;;;;;8.82;3.10;;;9.40;99.90;;;;;;20826763;28;20112;-76
2022/03/31 13:49:14;;;;;;;6.70;2.90;;;9.50;99.90;;;;;;20826897;28;20040;-77
2022/03/31 14:09:37;;;;;;;19.55;4.10;;;9.20;99.90;;;;;;20826002;28;20057;-76
2022/03/31 14:19:40;;;;;;;11.05;3.47;;;9.20;99.90;;;;;;20825285;28;20036;-77
2022/03/31 14:29:44;;;;;;;16.17;4.25;;;9.40;99.90;;;;;;20824009;28;20044;-75
2022/03/31 14:39:46;;;;;;;13.43;4.30;;;9.40;99.90;;;;;;20806284;28;20462;-77
2022/03/31 14:49:48;;;;;;;22.65;9.35;;;9.50;99.90;;;;;;20776042;28;20041;-77
2022/03/31 14:59:50;;;;;;;11.40;6.20;;;9.60;99.90;;;;;;20722636;28;20030;-75
2022/03/31 15:20:11;;;;;;;10.43;3.45;;;9.30;99.90;;;;;;20729695;28;20046;-77
2022/03/31 15:30:12;;;;;;;4.03;1.83;;;9.20;99.90;;;;;;20835484;22;20090;-76
2022/03/31 15:40:13;;;;;;;6.47;2.00;;;8.20;99.90;;;;;;20899941;28;20040;-75
2022/03/31 15:50:14;;;;;;;8.90;2.47;;;7.90;99.90;;;;;;20869843;28;20496;-75
2022/03/31 16:00:15;;;;;;;7.17;3.30;;;7.80;99.90;;;;;;20893675;28;20135;-74
2022/03/31 16:10:18;;;;;;;12.18;3.28;;;7.90;99.90;;;;;;20888503;28;20090;-76
2022/03/31 16:20:18;;;;;;;16.20;8.85;;;8.10;99.90;;;;;;20906821;28;20058;-75
2022/03/31 16:30:19;;;;;;;8.97;3.90;;;8.00;99.90;;;;;;20910851;28;20041;-76
2022/03/31 16:40:20;;;;;;;13.57;4.63;;;7.80;99.90;;;;;;20904242;28;20041;-76
2022/03/31 16:50:22;;;;;;;15.82;4.15;;;7.70;99.90;;;;;;20888515;28;20037;-75
2022/03/31 17:00:23;;;;;;;6.68;3.72;;;7.70;99.90;;;;;;20875442;28;20041;-76
2022/03/31 17:10:24;;;;;;;;;;;7.50;99.90;;;;;;20811183;28;20033;-75
2022/03/31 17:20:25;;;;;;;3.20;2.08;;;7.40;99.90;;;;;;20841786;28;20297;-75
2022/03/31 17:30:27;;;;;;;3.30;1.90;;;7.20;99.90;;;;;;20861993;28;20491;-76
2022/03/31 17:40:27;;;;;;;4.25;1.27;;;7.10;99.90;;;;;;20888434;28;20032;-76
2022/03/31 17:50:28;;;;;;;2.00;1.60;;;6.90;99.90;;;;;;20869147;28;20572;-75
2022/03/31 18:00:29;;;;;;;4.03;2.03;;;6.90;99.90;;;;;;20872867;28;20034;-75
2022/03/31 18:10:30;;;;;;;5.53;2.50;;;6.80;99.90;;;;;;20788257;28;20268;-75
2022/03/31 18:20:32;;;;;;;4.28;3.03;;;6.70;99.90;;;;;;20808249;28;20087;-76
2022/03/31 18:40:58;;;;;;;6.55;4.45;;;6.60;99.90;;;;;;20868314;28;20510;-75
2022/03/31 18:51:03;;;;;;;6.88;5.00;;;6.50;99.90;;;;;;20844798;28;20025;-75
2022/03/31 19:01:07;;;;;;;9.82;5.10;;;6.60;99.90;;;;;;20864293;28;20102;-75
2022/03/31 19:11:08;;;;;;;6.57;4.45;;;6.60;99.90;;;;;;20865512;28;20032;-75
2022/03/31 19:21:09;;;;;;;13.32;7.03;;;6.60;99.90;;;;;;20883178;28;20029;-76
2022/03/31 19:31:10;;;;;;;9.63;6.07;;;6.40;99.90;;;;;;20860869;28;20037;-75
2022/03/31 19:41:11;;;;;;;13.37;6.63;;;6.30;99.90;;;;;;20899799;28;20032;-76
2022/03/31 19:51:12;;;;;;;10.55;6.32;;;6.30;99.90;;;;;;20897441;28;20267;-75
2022/03/31 20:01:14;;;;;;;12.40;6.97;;;6.30;99.90;;;;;;20899879;28;20029;-75
2022/03/31 20:11:16;;;;;;;16.35;7.88;;;6.40;99.90;;;;;;20901806;28;20107;-75
2022/03/31 20:21:16;;;;;;;19.77;9.45;;;6.30;99.90;;;;;;20935117;28;20032;-75
2022/03/31 20:31:17;;;;;;;16.77;10.20;;;6.20;99.90;;;;;;20913529;28;20167;-74
2022/03/31 20:41:18;;;;;;;15.32;8.63;;;6.20;99.90;;;;;;20898312;28;20045;-75
2022/03/31 20:51:19;;;;;;;12.32;7.07;;;6.10;99.90;;;;;;20901065;28;20037;-75
2022/03/31 21:01:20;;;;;;;8.85;5.05;;;6.00;99.90;;;;;;20922675;28;20108;-75
2022/03/31 21:11:21;;;;;;;;;;;5.90;99.90;;;;;;20906922;28;20028;-76
2022/03/31 21:21:23;;;;;;;7.97;3.75;;;5.80;99.90;;;;;;20891859;28;20399;-75
2022/03/31 21:31:24;;;;;;;5.90;4.03;;;5.70;99.90;;;;;;20807626;23;20635;-75
2022/03/31 21:41:26;;;;;;;6.28;3.55;;;5.50;99.90;;;;;;20726582;28;20571;-74
2022/03/31 21:51:26;;;;;;;6.82;3.45;;;5.40;99.90;;;;;;20694710;28;20029;-74
2022/03/31 22:01:29;;;;;;;7.28;3.50;;;5.40;99.90;;;;;;20663005;28;20050;-75
2022/03/31 22:11:47;;;;;;;5.57;3.25;;;5.30;99.90;;;;;;20645430;28;20030;-76
2022/03/31 22:21:50;;;;;;;5.38;3.30;;;5.30;99.90;;;;;;20662032;28;20034;-75
2022/03/31 22:31:52;;;;;;;5.10;2.88;;;5.20;99.90;;;;;;20627262;28;20041;-75
2022/03/31 22:41:55;;;;;;;4.85;3.30;;;5.30;99.90;;;;;;20661650;28;20035;-75
2022/03/31 22:51:56;;;;;;;7.72;4.32;;;5.20;99.90;;;;;;20661068;28;20523;-75
2022/03/31 23:01:58;;;;;;;6.97;3.83;;;5.30;99.90;;;;;;20660353;28;20065;-75
2022/03/31 23:11:59;;;;;;;7.22;4.35;;;5.30;99.90;;;;;;20660041;28;20031;-75
2022/03/31 23:22:00;;;;;;;9.15;4.93;;;5.30;99.90;;;;;;20659654;28;20030;-75
2022/03/31 23:32:01;;;;;;;10.60;5.90;;;5.30;99.90;;;;;;20659326;28;20528;-74
2022/03/31 23:42:03;;;;;;;10.60;6.03;;;5.30;99.90;;;;;;20671101;28;20022;-75
2022/03/31 23:52:05;;;;;;;13.00;6.53;;;5.30;99.90;;;;;;20673040;28;20589;-75
